HomeShort term forecast

Short term forecast

Graphical weather forecast for the next 48 hours for Montreal:
Short term forecast
This weather forecast is automatically refreshed every 3 hours.

Hourly Experimental Forecast for the next 48 hours ®

Overall summary: Mostly cloudy until tomorrow morning.

 Date & Hour   Temp   Feel   Baro   Hum   Speed & Bearing   Wind Gust   Precip.%   Precip.   Visibility   Cloud cover   Conditions 
 17/12/2018 - 15:00  0.7°C  -3.6°C  1002.1 hPa  82%  15.7 km/h   35.5 km/h  15%  0.03 mm/h  16.1km  73%  Mostly Cloudy 
 17/12/2018 - 16:00  0.2°C  -4.3°C  1003.0 hPa  84%  15.8 km/h   35.0 km/h  8%  0.02 mm/h  14.3km  87%  Mostly Cloudy 
 17/12/2018 - 17:00  0.1°C  -4.9°C  1003.4 hPa  79%  19.1 km/h   40.5 km/h  5%  0.02 mm/h  15.4km  89%  Mostly Cloudy 
 17/12/2018 - 18:00  -1.2°C  -7.1°C  1004.4 hPa  75%  22.8 km/h   44.3 km/h  4%  0.06 mm/h  13.5km  71%  Mostly Cloudy 
 17/12/2018 - 19:00  -2.1°C  -8.3°C  1005.0 hPa  74%  23.0 km/h   44.7 km/h  3%  0.06 mm/h  8.1km  78%  Mostly Cloudy 
 17/12/2018 - 20:00  -2.9°C  -9.5°C  1006.2 hPa  70%  23.5 km/h   42.7 km/h  2%  0.04 mm/h  9.0km  88%  Mostly Cloudy 
 17/12/2018 - 21:00  -3.8°C  -10.5°C  1007.4 hPa  67%  23.6 km/h   41.4 km/h  2%  0.05 mm/h  7.5km  90%  Mostly Cloudy 
 17/12/2018 - 22:00  -4.5°C  -11.4°C  1008.4 hPa  65%  23.3 km/h   41.0 km/h  2%  0.07 mm/h  6.4km  74%  Mostly Cloudy 
 17/12/2018 - 23:00  -4.9°C  -11.9°C  1009.0 hPa  64%  22.8 km/h   40.4 km/h  2%  0.06 mm/h  9.9km  66%  Mostly Cloudy 
 18/12/2018 - 00:00  -5.3°C  -12.2°C  1009.5 hPa  63%  22.2 km/h   40.3 km/h  2%  0.04 mm/h  11.0km  72%  Mostly Cloudy 
 18/12/2018 - 01:00  -5.6°C  -12.6°C  1010.1 hPa  62%  21.5 km/h   39.0 km/h  1%  0.03 mm/h  13.2km  75%  Mostly Cloudy 
 18/12/2018 - 02:00  -6.0°C  -12.9°C  1010.6 hPa  61%  21.0 km/h   39.2 km/h  1%  0.06 mm/h  16.1km  67%  Mostly Cloudy 
 18/12/2018 - 03:00  -6.2°C  -13.2°C  1011.1 hPa  61%  20.6 km/h   39.2 km/h  1%  0.01 mm/h  16.1km  57%  Partly Cloudy 
 18/12/2018 - 04:00  -6.4°C  -13.4°C  1011.7 hPa  61%  21.0 km/h   37.9 km/h  1%  0.01 mm/h  16.1km  75%  Mostly Cloudy 
 18/12/2018 - 05:00  -7.1°C  -14.4°C  1012.5 hPa  62%  21.0 km/h   38.7 km/h  1%  0.01 mm/h  16.1km  63%  Mostly Cloudy 
 18/12/2018 - 06:00  -8.0°C  -15.6°C  1013.5 hPa  64%  21.3 km/h   40.0 km/h  1%  0.01 mm/h  16.1km  50%  Partly Cloudy 
 18/12/2018 - 07:00  -8.6°C  -16.4°C  1014.4 hPa  65%  21.6 km/h   40.5 km/h  0%  --  16.1km  36%  Partly Cloudy 
 18/12/2018 - 08:00  -8.9°C  -16.8°C  1015.3 hPa  66%  21.9 km/h   39.4 km/h  0%  --  16.1km  24%  Clear 
 18/12/2018 - 09:00  -8.7°C  -16.6°C  1016.3 hPa  65%  22.3 km/h   37.6 km/h  0%  --  16.1km  10%  Clear 
 18/12/2018 - 10:00  -8.3°C  -16.2°C  1016.9 hPa  64%  22.7 km/h   36.0 km/h  0%  --  16.1km  0%  Clear 
 18/12/2018 - 11:00  -7.6°C  -15.5°C  1017.0 hPa  62%  23.6 km/h   35.1 km/h  0%  --  16.1km  0%  Clear 
 18/12/2018 - 12:00  -7.0°C  -14.8°C  1016.8 hPa  61%  24.5 km/h   34.4 km/h  0%  --  16.1km  0%  Clear 
 18/12/2018 - 13:00  -6.6°C  -14.3°C  1016.7 hPa  61%  24.8 km/h   34.2 km/h  0%  --  16.1km  0%  Clear 
 18/12/2018 - 14:00  -6.6°C  -14.2°C  1017.0 hPa  62%  24.1 km/h   34.8 km/h  0%  --  16.1km  0%  Clear 
 18/12/2018 - 15:00  -6.7°C  -14.2°C  1017.3 hPa  63%  22.7 km/h   35.9 km/h  0%  --  16.1km  0%  Clear 
 18/12/2018 - 16:00  -6.8°C  -14.0°C  1017.8 hPa  63%  21.3 km/h   36.5 km/h  0%  --  16.1km  0%  Clear 
 18/12/2018 - 17:00  -6.7°C  -13.7°C  1018.4 hPa  63%  20.0 km/h   36.6 km/h  0%  --  16.1km  0%  Clear 
 18/12/2018 - 18:00  -6.9°C  -13.7°C  1019.0 hPa  63%  18.6 km/h   36.2 km/h  0%  --  16.1km  0%  Clear 
 18/12/2018 - 19:00  -7.1°C  -13.7°C  1019.5 hPa  64%  17.4 km/h   35.2 km/h  0%  --  16.1km  0%  Clear 
 18/12/2018 - 20:00  -7.0°C  -13.4°C  1019.6 hPa  63%  16.5 km/h   32.9 km/h  0%  --  16.1km  1%  Clear 
 18/12/2018 - 21:00  -7.6°C  -14.0°C  1019.5 hPa  67%  15.7 km/h   30.0 km/h  0%  --  16.1km  2%  Clear 
 18/12/2018 - 22:00  -7.6°C  -13.8°C  1019.5 hPa  67%  15.2 km/h   28.1 km/h  0%  --  16.1km  3%  Clear 
 18/12/2018 - 23:00  -7.6°C  -13.8°C  1019.5 hPa  67%  15.0 km/h   28.3 km/h  0%  --  16.1km  4%  Clear 
 19/12/2018 - 00:00  -7.6°C  -13.8°C  1019.6 hPa  68%  15.0 km/h   29.6 km/h  0%  --  16.1km  6%  Clear 
 19/12/2018 - 01:00  -7.6°C  -13.7°C  1019.6 hPa  68%  14.7 km/h   30.6 km/h  0%  --  16.1km  7%  Clear 
 19/12/2018 - 02:00  -7.6°C  -13.5°C  1019.4 hPa  69%  14.1 km/h   30.9 km/h  0%  --  16.1km  9%  Clear 
 19/12/2018 - 03:00  -6.9°C  -12.4°C  1019.2 hPa  66%  13.3 km/h   30.9 km/h  0%  --  16.1km  13%  Clear 
 19/12/2018 - 04:00  -7.2°C  -12.6°C  1019.0 hPa  68%  12.3 km/h   30.1 km/h  0%  --  16.1km  15%  Clear 
 19/12/2018 - 05:00  -7.5°C  -12.5°C  1018.9 hPa  70%  10.9 km/h   28.0 km/h  0%  --  16.1km  16%  Clear 
 19/12/2018 - 06:00  -8.5°C  -13.2°C  1018.8 hPa  76%  9.4 km/h   25.3 km/h  0%  --  16.1km  17%  Clear 
 19/12/2018 - 07:00  -8.2°C  -12.5°C  1018.6 hPa  76%  8.3 km/h   23.7 km/h  0%  --  16.1km  17%  Clear 
 19/12/2018 - 08:00  -7.5°C  -11.6°C  1018.4 hPa  74%  8.1 km/h   24.0 km/h  0%  --  16.1km  16%  Clear 
 19/12/2018 - 09:00  -6.7°C  -10.7°C  1018.0 hPa  72%  8.4 km/h   25.3 km/h  0%  --  16.1km  14%  Clear 
 19/12/2018 - 10:00  -5.4°C  -9.3°C  1017.5 hPa  70%  8.7 km/h   27.3 km/h  0%  --  16.1km  18%  Clear 
 19/12/2018 - 11:00  -4.5°C  -8.3°C  1016.8 hPa  74%  8.9 km/h   30.8 km/h  0%  --  16.1km  31%  Partly Cloudy 
 19/12/2018 - 12:00  -3.3°C  -7.0°C  1015.9 hPa  78%  9.2 km/h   35.0 km/h  0%  --  16.1km  48%  Partly Cloudy 
 19/12/2018 - 13:00  -2.2°C  -5.6°C  1015.2 hPa  81%  9.1 km/h   36.0 km/h  0%  --  13.5km  64%  Mostly Cloudy 
 19/12/2018 - 14:00  -1.4°C  -4.4°C  1014.8 hPa  82%  8.0 km/h   30.4 km/h  0%  --  12.4km  74%  Mostly Cloudy 
Test

 

Past weather and reports

Past weatherFind in this section the past weather conditions, weather archive, graphics, reports and statistics.

Current conditions

Current weather condition for MontrealAll you need to know about the current weather conditions for Montreal. Weather data is updated every 10 minutes.

Weather forecast

Current Montreal weatherSince 2004, celinium.com website has provided accurate weather forecast for Montreal's island.